CheckWX is a tool to help pilots better visualize weather data.  It is not intended as a substitute for an official pre-flight weather briefing.

05:26:56 UTC

KMKE TAF
General Mitchell International Airport
Milwaukee, Wisconsin, USA
KMKE 180301Z 1803/1906 08003KT P6SM FEW010 SCT250 FM180900 00000KT 3SM BR FEW007 SCT010 FM181300 00000KT P6SM SCT018 FM181500 VRB03KT P6SM BKN035 FM181700 13005KT P6SM BKN050

Jun-18@
03:00 UTC

Jun-18 @ 03:00 UTC

Jun-18@
09:00 UTC

Jun-18 @ 09:00 UTC

KMKE 180301Z 1803/1906 08003KT P6SM FEW010 SCT250
Wind
  • 080° at 3 KTS
Cloud Levels
  • Few at 1,000' AGL
  • Scattered at 25,000' AGL

Jun-18@
09:00 UTC

Jun-18 @ 09:00 UTC

Jun-18@
13:00 UTC

Jun-18 @ 13:00 UTC

FM180900 00000KT 3SM BR FEW007 SCT010

From

From Standard forecast or significant change

Conditions
Mist
Cloud Levels
  • Few at 700' AGL
  • Scattered at 1,000' AGL

Jun-18@
13:00 UTC

Jun-18 @ 13:00 UTC

Jun-18@
15:00 UTC

Jun-18 @ 15:00 UTC

FM181300 00000KT P6SM SCT018

From

From Standard forecast or significant change

Cloud Levels
  • Scattered at 1,800' AGL

Jun-18@
15:00 UTC

Jun-18 @ 15:00 UTC

Jun-18@
17:00 UTC

Jun-18 @ 17:00 UTC

FM181500 VRB03KT P6SM BKN035

From

From Standard forecast or significant change

Wind
  • Variable at 3 KTS
Cloud Levels
  • Broken at 3,500' AGL

Jun-18@
17:00 UTC

Jun-18 @ 17:00 UTC

Jun-19@
06:00 UTC

Jun-19 @ 06:00 UTC

FM181700 13005KT P6SM BKN050

From

From Standard forecast or significant change

Wind
  • 130° at 5 KTS
Cloud Levels
  • Broken at 5,000' AGL